sensor_id;sensor_type;location;lat;lon;timestamp;P1;durP1;ratioP1;P2;durP2;ratioP2
35304;SDS011;26433;48.034;-1.764;2022-11-18T06:03:59;2.42;;;0.10;;
35304;SDS011;26433;48.034;-1.764;2022-11-18T06:09:05;0.10;;;0.10;;
35304;SDS011;26433;48.034;-1.764;2022-11-18T06:14:11;0.82;;;0.20;;
35304;SDS011;26433;48.034;-1.764;2022-11-18T06:19:20;1.10;;;0.05;;
35304;SDS011;26433;48.034;-1.764;2022-11-18T06:24:25;1.33;;;0.22;;
35304;SDS011;26433;48.034;-1.764;2022-11-18T06:29:28;0.60;;;0.27;;
35304;SDS011;26433;48.034;-1.764;2022-11-18T06:34:34;1.95;;;0.10;;
35304;SDS011;26433;48.034;-1.764;2022-11-18T06:39:42;1.10;;;0.30;;
35304;SDS011;26433;48.034;-1.764;2022-11-18T06:44:46;4.13;;;0.30;;
35304;SDS011;26433;48.034;-1.764;2022-11-18T06:49:51;0.73;;;0.20;;
35304;SDS011;26433;48.034;-1.764;2022-11-18T06:54:54;0.75;;;0.32;;
35304;SDS011;26433;48.034;-1.764;2022-11-18T06:59:58;0.10;;;0.10;;
35304;SDS011;26433;48.034;-1.764;2022-11-18T07:05:05;0.05;;;0.05;;
35304;SDS011;26433;48.034;-1.764;2022-11-18T07:10:09;4.20;;;0.30;;
35304;SDS011;26433;48.034;-1.764;2022-11-18T07:15:12;0.57;;;0.30;;
35304;SDS011;26433;48.034;-1.764;2022-11-18T07:20:17;1.40;;;0.20;;
35304;SDS011;26433;48.034;-1.764;2022-11-18T07:25:21;2.08;;;0.30;;
35304;SDS011;26433;48.034;-1.764;2022-11-18T07:30:25;2.10;;;0.37;;
35304;SDS011;26433;48.034;-1.764;2022-11-18T07:35:30;0.30;;;0.10;;
35304;SDS011;26433;48.034;-1.764;2022-11-18T07:40:34;2.22;;;0.40;;
35304;SDS011;26433;48.034;-1.764;2022-11-18T07:45:38;1.63;;;0.27;;
35304;SDS011;26433;48.034;-1.764;2022-11-18T07:50:43;1.93;;;0.40;;
35304;SDS011;26433;48.034;-1.764;2022-11-18T07:55:48;0.35;;;0.35;;
35304;SDS011;26433;48.034;-1.764;2022-11-18T08:00:51;5.43;;;0.43;;
35304;SDS011;26433;48.034;-1.764;2022-11-18T08:05:58;2.72;;;0.30;;
35304;SDS011;26433;48.034;-1.764;2022-11-18T08:11:04;0.50;;;0.30;;
35304;SDS011;26433;48.034;-1.764;2022-11-18T08:16:11;0.17;;;0.17;;
35304;SDS011;26433;48.034;-1.764;2022-11-18T08:21:18;4.72;;;0.30;;
35304;SDS011;26433;48.034;-1.764;2022-11-18T08:26:23;0.52;;;0.28;;
35304;SDS011;26433;48.034;-1.764;2022-11-18T08:31:28;0.20;;;0.20;;
35304;SDS011;26433;48.034;-1.764;2022-11-18T08:36:34;0.93;;;0.22;;
35304;SDS011;26433;48.034;-1.764;2022-11-18T08:41:40;0.25;;;0.20;;
35304;SDS011;26433;48.034;-1.764;2022-11-18T08:46:45;4.70;;;0.40;;
35304;SDS011;26433;48.034;-1.764;2022-11-18T08:51:50;1.97;;;0.30;;
35304;SDS011;26433;48.034;-1.764;2022-11-18T08:56:54;0.52;;;0.15;;
35304;SDS011;26433;48.034;-1.764;2022-11-18T09:01:58;5.53;;;0.20;;
35304;SDS011;26433;48.034;-1.764;2022-11-18T09:07:04;2.20;;;0.28;;
35304;SDS011;26433;48.034;-1.764;2022-11-18T09:12:08;0.98;;;0.10;;
35304;SDS011;26433;48.034;-1.764;2022-11-18T09:17:15;1.85;;;0.20;;
35304;SDS011;26433;48.034;-1.764;2022-11-18T09:22:20;4.68;;;0.30;;
35304;SDS011;26433;48.034;-1.764;2022-11-18T09:27:24;1.02;;;0.20;;
35304;SDS011;26433;48.034;-1.764;2022-11-18T09:32:27;1.05;;;0.15;;
35304;SDS011;26433;48.034;-1.764;2022-11-18T09:37:33;0.60;;;0.15;;
35304;SDS011;26433;48.034;-1.764;2022-11-18T09:42:39;6.12;;;0.20;;
35304;SDS011;26433;48.034;-1.764;2022-11-18T09:47:57;0.10;;;0.10;;
35304;SDS011;26433;48.034;-1.764;2022-11-18T09:53:08;11.38;;;0.73;;
35304;SDS011;26433;48.034;-1.764;2022-11-18T09:58:20;2.05;;;0.10;;
35304;SDS011;26433;48.034;-1.764;2022-11-18T10:03:37;0.40;;;0.20;;
35304;SDS011;26433;48.034;-1.764;2022-11-18T10:13:53;2.53;;;0.25;;
35304;SDS011;26433;48.034;-1.764;2022-11-18T10:19:04;0.30;;;0.30;;
35304;SDS011;26433;48.034;-1.764;2022-11-18T10:24:20;3.05;;;0.45;;
35304;SDS011;26433;48.034;-1.764;2022-11-18T10:29:26;4.18;;;0.30;;
35304;SDS011;26433;48.034;-1.764;2022-11-18T10:34:30;0.22;;;0.20;;
35304;SDS011;26433;48.034;-1.764;2022-11-18T10:39:43;4.00;;;0.40;;
35304;SDS011;26433;48.034;-1.764;2022-11-18T10:44:52;0.65;;;0.20;;
35304;SDS011;26433;48.034;-1.764;2022-11-18T10:49:57;0.63;;;0.33;;
35304;SDS011;26433;48.034;-1.764;2022-11-18T10:55:08;1.50;;;0.25;;
35304;SDS011;26433;48.034;-1.764;2022-11-18T11:11:35;1.25;;;0.20;;
35304;SDS011;26433;48.034;-1.764;2022-11-18T11:16:42;0.40;;;0.22;;
35304;SDS011;26433;48.034;-1.764;2022-11-18T11:21:50;8.40;;;0.45;;
35304;SDS011;26433;48.034;-1.764;2022-11-18T11:27:00;0.50;;;0.13;;
35304;SDS011;26433;48.034;-1.764;2022-11-18T11:32:37;7.18;;;0.88;;
35304;SDS011;26433;48.034;-1.764;2022-11-18T11:38:03;0.98;;;0.45;;
35304;SDS011;26433;48.034;-1.764;2022-11-18T11:43:21;2.75;;;0.73;;
35304;SDS011;26433;48.034;-1.764;2022-11-18T11:48:33;0.55;;;0.20;;
35304;SDS011;26433;48.034;-1.764;2022-11-18T11:53:51;0.55;;;0.25;;
35304;SDS011;26433;48.034;-1.764;2022-11-18T11:59:11;3.35;;;0.40;;
35304;SDS011;26433;48.034;-1.764;2022-11-18T12:04:26;5.67;;;0.60;;
35304;SDS011;26433;48.034;-1.764;2022-11-18T12:09:39;1.30;;;0.47;;
35304;SDS011;26433;48.034;-1.764;2022-11-18T12:14:55;0.10;;;0.10;;
35304;SDS011;26433;48.034;-1.764;2022-11-18T12:25:57;1.02;;;0.57;;
35304;SDS011;26433;48.034;-1.764;2022-11-18T12:36:26;0.10;;;0.10;;
35304;SDS011;26433;48.034;-1.764;2022-11-18T12:47:12;0.68;;;0.03;;
35304;SDS011;26433;48.034;-1.764;2022-11-18T12:57:39;2.22;;;0.40;;
35304;SDS011;26433;48.034;-1.764;2022-11-18T13:02:49;1.08;;;0.60;;
35304;SDS011;26433;48.034;-1.764;2022-11-18T13:07:55;1.75;;;0.85;;
35304;SDS011;26433;48.034;-1.764;2022-11-18T13:13:22;0.15;;;0.08;;
35304;SDS011;26433;48.034;-1.764;2022-11-18T13:18:27;3.22;;;0.52;;
35304;SDS011;26433;48.034;-1.764;2022-11-18T13:23:31;0.20;;;0.10;;
35304;SDS011;26433;48.034;-1.764;2022-11-18T13:29:02;0.82;;;0.20;;
35304;SDS011;26433;48.034;-1.764;2022-11-18T13:34:38;0.77;;;0.10;;
35304;SDS011;26433;48.034;-1.764;2022-11-18T13:39:45;10.55;;;0.40;;
35304;SDS011;26433;48.034;-1.764;2022-11-18T13:44:52;1.35;;;0.47;;
35304;SDS011;26433;48.034;-1.764;2022-11-18T13:50:00;0.82;;;0.40;;
35304;SDS011;26433;48.034;-1.764;2022-11-18T13:55:08;3.72;;;0.60;;
35304;SDS011;26433;48.034;-1.764;2022-11-18T14:00:22;2.45;;;0.37;;
35304;SDS011;26433;48.034;-1.764;2022-11-18T14:05:28;0.20;;;0.10;;
35304;SDS011;26433;48.034;-1.764;2022-11-18T14:10:38;2.45;;;0.40;;
35304;SDS011;26433;48.034;-1.764;2022-11-18T14:15:44;0.47;;;0.13;;
35304;SDS011;26433;48.034;-1.764;2022-11-18T14:20:48;0.55;;;0.00;;
35304;SDS011;26433;48.034;-1.764;2022-11-18T14:25:53;0.20;;;0.10;;
35304;SDS011;26433;48.034;-1.764;2022-11-18T14:36:08;0.40;;;0.20;;
35304;SDS011;26433;48.034;-1.764;2022-11-18T14:41:14;1.73;;;0.22;;
35304;SDS011;26433;48.034;-1.764;2022-11-18T14:46:46;4.25;;;0.35;;
35304;SDS011;26433;48.034;-1.764;2022-11-18T14:51:53;0.20;;;0.10;;
35304;SDS011;26433;48.034;-1.764;2022-11-18T14:56:59;4.03;;;0.47;;
35304;SDS011;26433;48.034;-1.764;2022-11-18T15:02:05;0.62;;;0.40;;
35304;SDS011;26433;48.034;-1.764;2022-11-18T15:07:15;1.75;;;0.30;;
35304;SDS011;26433;48.034;-1.764;2022-11-18T15:12:24;0.37;;;0.35;;
35304;SDS011;26433;48.034;-1.764;2022-11-18T15:17:29;0.57;;;0.20;;
35304;SDS011;26433;48.034;-1.764;2022-11-18T15:22:36;3.12;;;0.90;;
35304;SDS011;26433;48.034;-1.764;2022-11-18T15:27:40;3.50;;;1.57;;
35304;SDS011;26433;48.034;-1.764;2022-11-18T15:32:45;1.33;;;0.35;;
35304;SDS011;26433;48.034;-1.764;2022-11-18T15:37:48;1.10;;;0.45;;
35304;SDS011;26433;48.034;-1.764;2022-11-18T15:42:52;1.23;;;0.90;;
35304;SDS011;26433;48.034;-1.764;2022-11-18T15:47:57;7.15;;;2.22;;
35304;SDS011;26433;48.034;-1.764;2022-11-18T15:53:01;1.12;;;0.43;;
35304;SDS011;26433;48.034;-1.764;2022-11-18T15:58:04;0.60;;;0.60;;
35304;SDS011;26433;48.034;-1.764;2022-11-18T16:03:09;3.60;;;0.53;;
35304;SDS011;26433;48.034;-1.764;2022-11-18T16:08:13;1.00;;;0.50;;
35304;SDS011;26433;48.034;-1.764;2022-11-18T16:13:19;0.52;;;0.43;;
35304;SDS011;26433;48.034;-1.764;2022-11-18T16:18:24;4.00;;;1.12;;
35304;SDS011;26433;48.034;-1.764;2022-11-18T16:23:27;2.67;;;0.85;;
35304;SDS011;26433;48.034;-1.764;2022-11-18T16:28:31;2.17;;;0.60;;
35304;SDS011;26433;48.034;-1.764;2022-11-18T16:33:36;0.30;;;0.20;;
35304;SDS011;26433;48.034;-1.764;2022-11-18T16:38:40;1.70;;;0.20;;
35304;SDS011;26433;48.034;-1.764;2022-11-18T16:43:43;1.13;;;0.70;;
35304;SDS011;26433;48.034;-1.764;2022-11-18T16:48:51;1.30;;;0.60;;
35304;SDS011;26433;48.034;-1.764;2022-11-18T16:53:56;0.43;;;0.30;;
35304;SDS011;26433;48.034;-1.764;2022-11-18T16:59:01;1.15;;;0.60;;
35304;SDS011;26433;48.034;-1.764;2022-11-18T17:04:07;0.82;;;0.40;;
35304;SDS011;26433;48.034;-1.764;2022-11-18T17:09:13;4.00;;;0.65;;
35304;SDS011;26433;48.034;-1.764;2022-11-18T17:14:18;2.92;;;0.28;;
35304;SDS011;26433;48.034;-1.764;2022-11-18T17:19:24;3.03;;;0.43;;
35304;SDS011;26433;48.034;-1.764;2022-11-18T17:24:27;0.93;;;0.32;;
35304;SDS011;26433;48.034;-1.764;2022-11-18T17:29:31;1.15;;;0.43;;
35304;SDS011;26433;48.034;-1.764;2022-11-18T17:34:36;6.68;;;0.93;;
35304;SDS011;26433;48.034;-1.764;2022-11-18T17:39:40;2.78;;;1.40;;
35304;SDS011;26433;48.034;-1.764;2022-11-18T17:44:44;1.62;;;1.00;;
35304;SDS011;26433;48.034;-1.764;2022-11-18T17:49:48;3.55;;;1.60;;
35304;SDS011;26433;48.034;-1.764;2022-11-18T17:54:52;2.47;;;1.10;;
35304;SDS011;26433;48.034;-1.764;2022-11-18T17:59:56;4.18;;;1.40;;
35304;SDS011;26433;48.034;-1.764;2022-11-18T18:05:01;3.42;;;1.30;;
35304;SDS011;26433;48.034;-1.764;2022-11-18T18:10:05;1.52;;;1.10;;
35304;SDS011;26433;48.034;-1.764;2022-11-18T18:15:09;1.87;;;1.12;;
35304;SDS011;26433;48.034;-1.764;2022-11-18T18:20:14;2.87;;;1.00;;
35304;SDS011;26433;48.034;-1.764;2022-11-18T18:25:18;1.08;;;0.70;;
35304;SDS011;26433;48.034;-1.764;2022-11-18T18:30:21;1.50;;;1.07;;
35304;SDS011;26433;48.034;-1.764;2022-11-18T18:35:26;2.77;;;1.30;;
35304;SDS011;26433;48.034;-1.764;2022-11-18T18:40:30;1.52;;;1.10;;
35304;SDS011;26433;48.034;-1.764;2022-11-18T18:45:34;2.33;;;1.40;;
35304;SDS011;26433;48.034;-1.764;2022-11-18T18:51:02;2.25;;;1.02;;
35304;SDS011;26433;48.034;-1.764;2022-11-18T18:56:06;2.75;;;1.20;;
35304;SDS011;26433;48.034;-1.764;2022-11-18T19:01:11;7.95;;;2.00;;
35304;SDS011;26433;48.034;-1.764;2022-11-18T19:06:19;7.07;;;1.40;;
35304;SDS011;26433;48.034;-1.764;2022-11-18T19:11:46;6.37;;;2.03;;
35304;SDS011;26433;48.034;-1.764;2022-11-18T19:17:07;5.68;;;1.83;;
35304;SDS011;26433;48.034;-1.764;2022-11-18T19:22:15;3.15;;;1.55;;
35304;SDS011;26433;48.034;-1.764;2022-11-18T19:27:19;5.10;;;1.90;;
35304;SDS011;26433;48.034;-1.764;2022-11-18T19:32:22;5.07;;;2.57;;
35304;SDS011;26433;48.034;-1.764;2022-11-18T19:37:27;4.12;;;2.60;;
35304;SDS011;26433;48.034;-1.764;2022-11-18T19:42:32;6.18;;;3.35;;
35304;SDS011;26433;48.034;-1.764;2022-11-18T19:47:37;8.60;;;3.83;;
35304;SDS011;26433;48.034;-1.764;2022-11-18T19:52:42;9.97;;;3.40;;
35304;SDS011;26433;48.034;-1.764;2022-11-18T19:57:49;4.78;;;2.97;;
35304;SDS011;26433;48.034;-1.764;2022-11-18T20:02:53;6.57;;;3.43;;
35304;SDS011;26433;48.034;-1.764;2022-11-18T20:07:58;7.60;;;3.43;;
35304;SDS011;26433;48.034;-1.764;2022-11-18T20:13:01;6.57;;;3.20;;
35304;SDS011;26433;48.034;-1.764;2022-11-18T20:18:05;4.83;;;2.50;;
35304;SDS011;26433;48.034;-1.764;2022-11-18T20:23:10;10.20;;;3.10;;
35304;SDS011;26433;48.034;-1.764;2022-11-18T20:28:14;3.22;;;2.10;;
35304;SDS011;26433;48.034;-1.764;2022-11-18T20:33:17;6.25;;;2.55;;
35304;SDS011;26433;48.034;-1.764;2022-11-18T20:38:22;4.17;;;1.97;;
35304;SDS011;26433;48.034;-1.764;2022-11-18T20:43:26;3.25;;;2.30;;
35304;SDS011;26433;48.034;-1.764;2022-11-18T20:48:30;4.83;;;1.90;;
35304;SDS011;26433;48.034;-1.764;2022-11-18T20:53:35;7.03;;;1.93;;
35304;SDS011;26433;48.034;-1.764;2022-11-18T20:58:40;6.37;;;1.98;;
35304;SDS011;26433;48.034;-1.764;2022-11-18T21:03:46;3.57;;;1.83;;
35304;SDS011;26433;48.034;-1.764;2022-11-18T21:08:55;5.32;;;1.85;;
35304;SDS011;26433;48.034;-1.764;2022-11-18T21:13:59;4.82;;;2.35;;
35304;SDS011;26433;48.034;-1.764;2022-11-18T21:19:26;4.53;;;1.40;;
35304;SDS011;26433;48.034;-1.764;2022-11-18T21:29:36;2.80;;;1.48;;
35304;SDS011;26433;48.034;-1.764;2022-11-18T21:34:40;2.25;;;1.58;;
35304;SDS011;26433;48.034;-1.764;2022-11-18T21:39:45;5.17;;;1.80;;
35304;SDS011;26433;48.034;-1.764;2022-11-18T21:44:48;4.30;;;1.75;;
35304;SDS011;26433;48.034;-1.764;2022-11-18T21:49:52;6.87;;;2.30;;
35304;SDS011;26433;48.034;-1.764;2022-11-18T21:54:57;2.40;;;1.97;;
35304;SDS011;26433;48.034;-1.764;2022-11-18T22:00:02;3.65;;;1.83;;
35304;SDS011;26433;48.034;-1.764;2022-11-18T22:05:12;3.25;;;1.67;;
35304;SDS011;26433;48.034;-1.764;2022-11-18T22:10:17;5.05;;;1.92;;
35304;SDS011;26433;48.034;-1.764;2022-11-18T22:15:21;2.87;;;1.70;;
35304;SDS011;26433;48.034;-1.764;2022-11-18T22:20:25;1.85;;;1.10;;
35304;SDS011;26433;48.034;-1.764;2022-11-18T22:25:30;5.60;;;1.40;;
35304;SDS011;26433;48.034;-1.764;2022-11-18T22:30:34;4.80;;;1.55;;
35304;SDS011;26433;48.034;-1.764;2022-11-18T22:35:37;3.60;;;2.05;;
35304;SDS011;26433;48.034;-1.764;2022-11-18T22:40:42;4.65;;;2.20;;
35304;SDS011;26433;48.034;-1.764;2022-11-18T22:45:46;3.72;;;2.08;;
35304;SDS011;26433;48.034;-1.764;2022-11-18T22:50:54;5.80;;;2.37;;
35304;SDS011;26433;48.034;-1.764;2022-11-18T22:56:04;5.60;;;2.47;;
35304;SDS011;26433;48.034;-1.764;2022-11-18T23:01:09;4.65;;;2.22;;
35304;SDS011;26433;48.034;-1.764;2022-11-18T23:06:14;6.40;;;2.40;;
35304;SDS011;26433;48.034;-1.764;2022-11-18T23:11:19;4.70;;;2.03;;
35304;SDS011;26433;48.034;-1.764;2022-11-18T23:16:37;5.22;;;2.60;;
35304;SDS011;26433;48.034;-1.764;2022-11-18T23:21:42;4.40;;;2.28;;
35304;SDS011;26433;48.034;-1.764;2022-11-18T23:26:48;4.32;;;1.87;;
